createdAt,value
2022-08-17T00:00:43.725Z,18.41
2022-08-17T00:03:10.466Z,18.38
2022-08-17T00:06:02.099Z,18.34
2022-08-17T00:08:35.595Z,18.30
2022-08-17T00:11:09.833Z,18.24
2022-08-17T00:13:42.922Z,18.21
2022-08-17T00:16:16.071Z,18.19
2022-08-17T00:19:05.749Z,18.20
2022-08-17T00:21:36.061Z,18.18
2022-08-17T00:24:23.770Z,18.16
2022-08-17T00:26:52.499Z,18.12
2022-08-17T00:29:20.525Z,18.08
2022-08-17T00:31:49.888Z,18.07
2022-08-17T00:34:19.119Z,18.05
2022-08-17T00:36:47.048Z,18.02
2022-08-17T00:39:15.042Z,18.01
2022-08-17T00:41:43.439Z,18.01
2022-08-17T00:44:12.477Z,18.03
2022-08-17T00:46:42.860Z,18.03
2022-08-17T00:49:12.536Z,18.02
2022-08-17T00:51:43.477Z,17.98
2022-08-17T00:54:16.758Z,17.94
2022-08-17T00:56:47.920Z,17.94
2022-08-17T00:59:21.962Z,17.92
2022-08-17T01:01:51.310Z,17.90
2022-08-17T01:04:22.576Z,17.88
2022-08-17T01:06:51.789Z,17.88
2022-08-17T01:09:20.966Z,17.89
2022-08-17T01:11:52.515Z,17.88
2022-08-17T01:14:23.548Z,17.84
2022-08-17T01:16:54.391Z,17.82
2022-08-17T01:19:26.371Z,17.82
2022-08-17T01:22:14.630Z,17.80
2022-08-17T01:24:52.274Z,17.77
2022-08-17T01:27:21.821Z,17.74
2022-08-17T01:29:53.984Z,17.74
2022-08-17T01:32:22.111Z,17.72
2022-08-17T01:34:51.024Z,17.70
2022-08-17T01:37:27.875Z,17.67
2022-08-17T01:40:29.938Z,17.63
2022-08-17T01:42:57.897Z,17.57
2022-08-17T01:45:32.371Z,17.56
2022-08-17T01:48:00.838Z,17.53
2022-08-17T01:50:31.933Z,17.48
2022-08-17T01:53:07.174Z,17.41
2022-08-17T01:55:43.290Z,17.37
2022-08-17T01:58:11.565Z,17.33
2022-08-17T02:00:59.751Z,17.29
2022-08-17T02:03:30.463Z,17.25
2022-08-17T02:05:59.018Z,17.23
2022-08-17T02:08:37.147Z,17.20
2022-08-17T02:11:14.812Z,17.18
2022-08-17T02:13:47.602Z,17.16
2022-08-17T02:16:23.471Z,17.13
2022-08-17T02:18:51.407Z,17.10
2022-08-17T02:21:20.211Z,17.09
2022-08-17T02:23:50.214Z,17.10
2022-08-17T02:26:25.831Z,17.13
2022-08-17T02:28:55.073Z,17.17
2022-08-17T02:31:23.062Z,17.18
2022-08-17T02:34:00.549Z,17.16
2022-08-17T02:36:36.620Z,17.13
2022-08-17T02:39:08.040Z,17.12
2022-08-17T02:41:36.702Z,17.12
2022-08-17T02:44:06.080Z,17.11
2022-08-17T02:46:34.595Z,17.07
2022-08-17T02:49:04.784Z,17.02
2022-08-17T02:51:35.375Z,17.00
2022-08-17T02:54:39.239Z,16.96
2022-08-17T02:56:52.019Z,16.93
2022-08-17T02:59:20.008Z,16.94
2022-08-17T03:01:48.194Z,16.96
2022-08-17T03:04:16.951Z,16.99
2022-08-17T03:06:45.130Z,17.01
2022-08-17T03:09:13.484Z,17.02
2022-08-17T03:11:41.562Z,17.02
2022-08-17T03:14:09.484Z,16.98
2022-08-17T03:16:37.614Z,16.94
2022-08-17T03:19:07.348Z,16.88
2022-08-17T03:21:36.064Z,16.83
2022-08-17T03:24:08.802Z,16.83
2022-08-17T03:26:37.738Z,16.83
2022-08-17T03:29:05.768Z,16.82
2022-08-17T03:31:33.723Z,16.80
2022-08-17T03:34:05.245Z,16.77
2022-08-17T03:36:36.088Z,16.73
2022-08-17T03:39:05.054Z,16.72
2022-08-17T03:41:33.444Z,16.69
2022-08-17T03:44:01.928Z,16.67
2022-08-17T03:47:08.723Z,16.69
2022-08-17T03:49:55.304Z,16.76
2022-08-17T03:52:41.980Z,16.86
2022-08-17T03:55:35.749Z,16.95
2022-08-17T03:58:04.675Z,16.99
2022-08-17T04:00:32.694Z,16.99
2022-08-17T04:03:06.880Z,16.98
2022-08-17T04:05:37.702Z,17.00
2022-08-17T04:08:06.302Z,17.05
2022-08-17T04:10:38.460Z,17.10
2022-08-17T04:13:14.079Z,17.16
2022-08-17T04:15:42.052Z,17.26
2022-08-17T04:18:11.083Z,17.37
2022-08-17T04:20:39.150Z,17.45
2022-08-17T04:23:14.070Z,17.53
2022-08-17T04:25:46.345Z,17.60
2022-08-17T04:28:16.092Z,17.70
2022-08-17T04:30:47.161Z,17.80
2022-08-17T04:33:18.945Z,17.86
2022-08-17T04:35:49.553Z,17.88
2022-08-17T04:38:20.567Z,17.95
2022-08-17T04:41:07.853Z,18.05
2022-08-17T04:43:38.470Z,18.16
2022-08-17T04:46:22.566Z,18.25
2022-08-17T04:48:53.423Z,18.33
2022-08-17T04:51:21.293Z,18.34
2022-08-17T04:53:54.806Z,18.26
2022-08-17T04:56:26.088Z,18.19
2022-08-17T04:58:57.927Z,18.10
2022-08-17T05:01:28.468Z,17.98
2022-08-17T05:04:01.899Z,17.91
2022-08-17T05:06:49.803Z,18.05
2022-08-17T05:09:18.785Z,18.17
2022-08-17T05:11:47.006Z,18.26
2022-08-17T05:14:15.248Z,18.33
2022-08-17T05:16:43.245Z,18.42
2022-08-17T05:19:11.575Z,18.51
2022-08-17T05:21:39.696Z,18.57
2022-08-17T05:24:15.571Z,18.63
2022-08-17T05:26:55.698Z,18.69
2022-08-17T05:29:23.717Z,18.73
2022-08-17T05:32:38.034Z,18.77
2022-08-17T05:35:02.149Z,18.83
2022-08-17T05:37:30.228Z,18.88
2022-08-17T05:39:58.335Z,18.95
2022-08-17T05:42:26.246Z,19.05
2022-08-17T05:44:57.944Z,19.12
2022-08-17T05:47:27.043Z,19.17
2022-08-17T05:49:55.165Z,19.23
2022-08-17T05:52:57.372Z,19.30
2022-08-17T05:55:48.673Z,19.35
2022-08-17T05:58:39.993Z,19.40
2022-08-17T06:01:26.976Z,19.37
2022-08-17T06:04:04.892Z,19.37
2022-08-17T06:06:42.514Z,19.50
2022-08-17T06:09:28.879Z,19.67
2022-08-17T06:12:28.960Z,19.88
2022-08-17T06:15:15.284Z,20.09
2022-08-17T06:17:43.978Z,20.29
2022-08-17T06:20:14.795Z,20.52
2022-08-17T06:22:49.070Z,21.00
2022-08-17T06:25:45.444Z,21.69
2022-08-17T06:28:19.182Z,22.47
2022-08-17T06:30:58.629Z,22.88
2022-08-17T06:33:37.016Z,23.22
2022-08-17T06:36:16.033Z,23.68
2022-08-17T06:39:18.195Z,23.97
2022-08-17T06:42:05.722Z,24.20
2022-08-17T06:44:51.089Z,24.78
2022-08-17T06:47:28.321Z,25.49
2022-08-17T06:50:00.870Z,25.59
2022-08-17T06:52:45.268Z,25.56
2022-08-17T06:55:24.051Z,25.82
2022-08-17T06:57:58.205Z,26.20
2022-08-17T07:00:47.951Z,26.56
2022-08-17T07:03:43.488Z,26.50
2022-08-17T07:06:14.778Z,25.98
2022-08-17T07:08:51.983Z,25.47
2022-08-17T07:11:27.445Z,24.93
2022-08-17T07:14:04.693Z,24.54
2022-08-17T07:16:42.425Z,24.28
2022-08-17T07:19:10.846Z,24.13
2022-08-17T07:22:03.946Z,24.30
2022-08-17T07:24:53.420Z,24.56
2022-08-17T07:27:31.173Z,24.78
2022-08-17T07:30:10.947Z,24.97
2022-08-17T07:32:50.894Z,24.99
2022-08-17T07:35:41.433Z,25.05
2022-08-17T07:38:25.394Z,25.12
2022-08-17T07:40:57.906Z,25.14
2022-08-17T07:43:26.218Z,25.28
2022-08-17T07:46:36.881Z,25.33
2022-08-17T07:49:06.858Z,25.40
2022-08-17T07:51:36.649Z,25.50
2022-08-17T07:54:50.728Z,25.52
2022-08-17T07:57:27.935Z,25.38
2022-08-17T08:00:01.476Z,25.11
2022-08-17T08:02:40.600Z,25.00
2022-08-17T08:05:30.722Z,24.92
2022-08-17T08:08:31.653Z,24.99
2022-08-17T08:11:06.306Z,25.07
2022-08-17T08:13:35.217Z,25.27
2022-08-17T08:16:24.548Z,25.49
2022-08-17T08:18:57.811Z,25.80
2022-08-17T08:21:53.234Z,26.07
2022-08-17T08:24:37.348Z,26.29
2022-08-17T08:27:27.260Z,26.55
2022-08-17T08:30:08.906Z,26.67
2022-08-17T08:33:14.743Z,26.34
2022-08-17T08:35:48.682Z,26.24
2022-08-17T08:38:29.486Z,26.14
2022-08-17T08:41:26.398Z,26.27
2022-08-17T08:44:13.079Z,26.17
2022-08-17T08:46:54.539Z,26.13
2022-08-17T08:50:03.525Z,26.30
2022-08-17T08:53:03.901Z,26.43
2022-08-17T08:55:49.607Z,26.04
2022-08-17T08:58:32.289Z,25.92
2022-08-17T09:01:23.102Z,25.60
2022-08-17T09:04:29.035Z,25.51
2022-08-17T09:07:03.316Z,25.50
2022-08-17T09:09:48.177Z,25.66
2022-08-17T09:12:48.599Z,25.90
2022-08-17T09:15:22.229Z,25.98
2022-08-17T09:19:02.653Z,26.10
2022-08-17T09:21:02.975Z,26.15
2022-08-17T09:23:41.119Z,26.29
2022-08-17T09:26:22.195Z,26.57
2022-08-17T09:28:53.586Z,26.75
2022-08-17T09:31:33.266Z,26.72
2022-08-17T09:34:33.132Z,26.70
2022-08-17T09:37:20.241Z,26.69
2022-08-17T09:40:21.381Z,26.72
2022-08-17T09:43:04.938Z,26.63
2022-08-17T09:45:51.388Z,26.69
2022-08-17T09:48:34.021Z,26.81
2022-08-17T09:51:07.131Z,26.63
2022-08-17T09:53:39.670Z,26.48
2022-08-17T09:56:45.380Z,26.49
2022-08-17T09:59:27.673Z,26.45
2022-08-17T10:02:26.945Z,26.41
2022-08-17T10:05:13.796Z,26.28
2022-08-17T10:07:52.766Z,26.24
2022-08-17T10:10:37.169Z,26.18
2022-08-17T10:13:41.653Z,26.08
2022-08-17T10:16:25.848Z,26.03
2022-08-17T10:19:13.936Z,25.93
2022-08-17T10:22:32.745Z,25.88
2022-08-17T10:25:23.562Z,25.91
2022-08-17T10:27:57.603Z,25.94
2022-08-17T10:30:30.565Z,26.10
2022-08-17T10:33:03.415Z,26.33
2022-08-17T10:35:35.256Z,26.55
2022-08-17T10:38:12.908Z,26.71
2022-08-17T10:40:53.644Z,26.75
2022-08-17T10:44:36.976Z,26.81
2022-08-17T10:46:55.640Z,27.00
2022-08-17T10:49:29.466Z,27.07
2022-08-17T10:52:00.681Z,27.04
2022-08-17T10:54:40.797Z,27.06
2022-08-17T10:57:26.970Z,27.25
2022-08-17T10:59:57.395Z,27.40
2022-08-17T11:02:45.898Z,27.57
2022-08-17T11:05:43.279Z,27.67
2022-08-17T11:08:33.360Z,27.73
2022-08-17T11:11:23.487Z,27.80
2022-08-17T11:14:13.961Z,27.76
2022-08-17T11:16:50.341Z,27.71
2022-08-17T11:19:21.430Z,27.82
2022-08-17T11:21:52.737Z,27.91
2022-08-17T11:24:44.871Z,27.83
2022-08-17T11:27:33.345Z,27.85
2022-08-17T11:30:05.390Z,27.91
2022-08-17T11:32:47.678Z,27.94
2022-08-17T11:35:22.740Z,27.95
2022-08-17T11:38:28.427Z,28.01
2022-08-17T11:41:27.718Z,28.01
2022-08-17T11:44:26.829Z,28.06
2022-08-17T11:47:37.185Z,27.99
2022-08-17T11:51:01.748Z,27.92
2022-08-17T11:53:38.891Z,27.79
2022-08-17T11:56:30.295Z,27.81
2022-08-17T11:59:00.573Z,28.00
2022-08-17T12:01:31.785Z,28.19
2022-08-17T12:04:31.898Z,28.30
2022-08-17T12:07:09.203Z,28.46
2022-08-17T12:09:46.271Z,28.38
2022-08-17T12:12:19.777Z,28.24
2022-08-17T12:17:42.844Z,28.39
2022-08-17T12:20:19.774Z,28.43
2022-08-17T12:23:09.523Z,28.40
2022-08-17T12:25:55.773Z,28.50
2022-08-17T12:28:26.673Z,28.48
2022-08-17T12:31:00.022Z,28.51
2022-08-17T12:33:28.966Z,28.54
2022-08-17T12:36:08.646Z,28.55
2022-08-17T12:38:38.409Z,28.59
2022-08-17T12:41:28.605Z,28.73
2022-08-17T12:44:14.289Z,28.86
2022-08-17T12:46:56.057Z,29.02
2022-08-17T12:49:29.954Z,29.04
2022-08-17T12:52:23.943Z,29.09
2022-08-17T12:54:59.863Z,29.21
2022-08-17T12:57:38.928Z,29.33
2022-08-17T13:00:17.755Z,29.41
2022-08-17T13:02:51.502Z,29.30
2022-08-17T13:05:27.841Z,29.08
2022-08-17T13:07:59.343Z,29.07
2022-08-17T13:10:36.248Z,29.15
2022-08-17T13:13:19.646Z,29.17
2022-08-17T13:16:01.539Z,29.11
2022-08-17T13:18:43.624Z,29.03
2022-08-17T13:21:33.720Z,28.92
2022-08-17T13:24:10.765Z,28.91
2022-08-17T13:27:12.161Z,28.95
2022-08-17T13:29:53.252Z,29.09
2022-08-17T13:32:31.082Z,29.16
2022-08-17T13:35:29.564Z,29.14
2022-08-17T13:38:08.558Z,29.23
2022-08-17T13:40:49.190Z,29.27
2022-08-17T13:43:40.535Z,29.27
2022-08-17T13:46:21.078Z,29.32
2022-08-17T13:49:07.032Z,29.30
2022-08-17T13:51:46.887Z,29.19
2022-08-17T13:54:29.900Z,29.28
2022-08-17T13:57:01.298Z,29.42
2022-08-17T13:59:54.172Z,29.54
2022-08-17T14:02:26.640Z,29.51
2022-08-17T14:04:58.454Z,29.53
2022-08-17T14:07:31.375Z,29.45
2022-08-17T14:10:21.761Z,29.35
2022-08-17T14:12:50.723Z,29.31
2022-08-17T14:15:22.927Z,29.31
2022-08-17T14:17:53.830Z,29.22
2022-08-17T14:20:22.846Z,29.08
2022-08-17T14:22:53.803Z,28.87
2022-08-17T14:25:25.107Z,28.72
2022-08-17T14:27:54.275Z,28.64
2022-08-17T14:30:29.030Z,28.59
2022-08-17T14:32:59.139Z,28.48
2022-08-17T14:35:28.352Z,28.37
2022-08-17T14:37:56.717Z,28.24
2022-08-17T14:40:25.506Z,27.91
2022-08-17T14:42:55.532Z,27.59
2022-08-17T14:45:30.186Z,27.32
2022-08-17T14:48:04.346Z,27.31
2022-08-17T14:50:35.832Z,27.38
2022-08-17T14:53:06.528Z,27.54
2022-08-17T14:55:36.988Z,27.60
2022-08-17T14:58:05.467Z,27.62
2022-08-17T15:00:37.377Z,27.70
2022-08-17T15:03:06.017Z,27.71
2022-08-17T15:05:36.753Z,27.75
2022-08-17T15:08:05.820Z,27.83
2022-08-17T15:10:34.463Z,27.78
2022-08-17T15:13:02.811Z,27.72
2022-08-17T15:15:31.390Z,27.72
2022-08-17T15:18:00.252Z,27.74
2022-08-17T15:20:30.151Z,27.73
2022-08-17T15:22:59.301Z,27.85
2022-08-17T15:25:30.482Z,27.97
2022-08-17T15:28:00.455Z,28.04
2022-08-17T15:30:29.730Z,28.00
2022-08-17T15:33:02.109Z,27.94
2022-08-17T15:35:33.350Z,27.88
2022-08-17T15:38:11.306Z,27.76
2022-08-17T15:40:44.408Z,27.67
2022-08-17T15:43:22.136Z,27.17
2022-08-17T15:46:06.559Z,26.32
2022-08-17T15:48:42.073Z,24.74
2022-08-17T15:51:12.187Z,22.69
2022-08-17T15:53:42.409Z,21.51
2022-08-17T15:56:11.443Z,21.08
2022-08-17T15:58:42.422Z,20.75
2022-08-17T16:01:16.560Z,20.43
2022-08-17T16:04:03.924Z,20.31
2022-08-17T16:06:34.921Z,20.24
2022-08-17T16:09:03.217Z,20.26
2022-08-17T16:11:31.593Z,20.31
2022-08-17T16:14:00.243Z,20.42
2022-08-17T16:16:31.382Z,20.55
2022-08-17T16:18:59.799Z,20.69
2022-08-17T16:21:31.224Z,20.84
2022-08-17T16:24:13.104Z,20.94
2022-08-17T16:26:42.786Z,21.04
2022-08-17T16:29:11.072Z,21.13
2022-08-17T16:31:39.201Z,21.23
2022-08-17T16:34:17.266Z,21.35
2022-08-17T16:36:54.722Z,21.46
2022-08-17T16:39:26.817Z,21.54
2022-08-17T16:41:56.091Z,21.61
2022-08-17T16:44:26.033Z,21.71
2022-08-17T16:46:54.147Z,21.79
2022-08-17T16:49:35.063Z,21.89
2022-08-17T16:52:08.414Z,22.02
2022-08-17T16:54:42.078Z,22.07
2022-08-17T16:57:11.409Z,22.11
2022-08-17T16:59:42.596Z,22.18
2022-08-17T17:02:16.324Z,22.25
2022-08-17T17:04:55.688Z,22.25
2022-08-17T17:07:49.837Z,22.23
2022-08-17T17:10:30.388Z,22.17
2022-08-17T17:13:03.269Z,22.12
2022-08-17T17:15:45.274Z,22.06
2022-08-17T17:18:16.026Z,22.01
2022-08-17T17:20:55.386Z,21.93
2022-08-17T17:23:23.459Z,21.86
2022-08-17T17:26:03.926Z,21.77
2022-08-17T17:28:53.104Z,21.69
2022-08-17T17:31:25.718Z,21.59
2022-08-17T17:33:58.012Z,21.52
2022-08-17T17:36:34.052Z,21.45
2022-08-17T17:39:10.007Z,21.39
2022-08-17T17:41:58.000Z,21.34
2022-08-17T17:44:32.414Z,21.26
2022-08-17T17:47:02.569Z,21.19
2022-08-17T17:49:35.782Z,21.13
2022-08-17T17:52:19.553Z,21.08
2022-08-17T17:55:13.412Z,21.02
2022-08-17T17:57:48.232Z,20.98
2022-08-17T18:00:22.153Z,20.93
2022-08-17T18:03:06.578Z,20.86
2022-08-17T18:06:01.205Z,20.82
2022-08-17T18:08:44.701Z,20.79
2022-08-17T18:11:25.904Z,20.74
2022-08-17T18:14:21.529Z,20.71
2022-08-17T18:16:59.211Z,20.65
2022-08-17T18:19:30.040Z,20.65
2022-08-17T18:22:18.299Z,20.62
2022-08-17T18:24:57.422Z,20.59
2022-08-17T18:27:32.526Z,20.54
2022-08-17T18:30:22.153Z,20.53
2022-08-17T18:32:50.302Z,20.52
2022-08-17T18:35:18.421Z,20.52
2022-08-17T18:37:46.635Z,20.50
2022-08-17T18:40:26.444Z,20.50
2022-08-17T18:43:00.545Z,20.50
2022-08-17T18:45:34.918Z,20.49
2022-08-17T18:48:03.601Z,20.47
2022-08-17T18:50:41.442Z,20.46
2022-08-17T18:53:41.277Z,20.46
2022-08-17T18:56:17.341Z,20.47
2022-08-17T18:58:53.905Z,20.47
2022-08-17T19:01:41.489Z,20.45
2022-08-17T19:04:46.159Z,20.43
2022-08-17T19:07:17.150Z,20.41
2022-08-17T19:09:50.757Z,20.39
2022-08-17T19:12:27.755Z,20.37
2022-08-17T19:14:58.453Z,20.34
2022-08-17T19:17:43.584Z,20.31
2022-08-17T19:20:20.355Z,20.31
2022-08-17T19:23:01.621Z,20.29
2022-08-17T19:25:38.643Z,20.28
2022-08-17T19:28:23.334Z,20.27
2022-08-17T19:30:57.884Z,20.26
2022-08-17T19:33:26.486Z,20.26
2022-08-17T19:36:06.438Z,20.23
2022-08-17T19:39:00.087Z,20.25
2022-08-17T19:41:48.854Z,20.24
2022-08-17T19:44:51.411Z,20.24
2022-08-17T19:47:54.363Z,20.23
2022-08-17T19:50:44.340Z,20.24
2022-08-17T19:54:04.247Z,20.25
2022-08-17T19:57:09.973Z,20.24
2022-08-17T19:59:57.177Z,20.24
2022-08-17T20:02:43.991Z,20.23
2022-08-17T20:05:24.313Z,20.22
2022-08-17T20:08:05.381Z,20.22
2022-08-17T20:11:06.986Z,20.22
2022-08-17T20:13:41.391Z,20.23
2022-08-17T20:16:11.357Z,20.24
2022-08-17T20:18:57.420Z,20.24
2022-08-17T20:21:37.263Z,20.24
2022-08-17T20:24:20.227Z,20.23
2022-08-17T20:26:58.907Z,20.20
2022-08-17T20:29:54.516Z,20.15
2022-08-17T20:32:29.062Z,20.12
2022-08-17T20:35:22.522Z,20.09
2022-08-17T20:38:02.334Z,20.06
2022-08-17T20:40:57.849Z,20.04
2022-08-17T20:43:35.750Z,20.00
2022-08-17T20:46:03.623Z,19.97
2022-08-17T20:48:40.433Z,19.92
2022-08-17T20:51:29.413Z,19.89
2022-08-17T20:54:06.702Z,19.86
2022-08-17T20:56:43.822Z,19.84
2022-08-17T20:59:32.055Z,19.81
2022-08-17T21:02:08.874Z,19.77
2022-08-17T21:04:52.397Z,19.76
2022-08-17T21:07:42.920Z,19.71
2022-08-17T21:10:21.426Z,19.69
2022-08-17T21:13:13.939Z,19.68
2022-08-17T21:15:52.670Z,19.66
2022-08-17T21:18:30.178Z,19.65
2022-08-17T21:21:07.225Z,19.63
2022-08-17T21:23:56.113Z,19.62
2022-08-17T21:26:39.004Z,19.60
2022-08-17T21:29:31.310Z,19.59
2022-08-17T21:32:03.725Z,19.59
2022-08-17T21:34:44.390Z,19.58
2022-08-17T21:37:24.610Z,19.56
2022-08-17T21:40:19.446Z,19.55
2022-08-17T21:42:55.763Z,19.52
2022-08-17T21:45:37.334Z,19.50
2022-08-17T21:48:16.267Z,19.47
2022-08-17T21:50:58.032Z,19.45
2022-08-17T21:53:36.733Z,19.42
2022-08-17T21:56:06.359Z,19.39
2022-08-17T21:58:40.312Z,19.37
2022-08-17T22:01:23.819Z,19.35
2022-08-17T22:04:20.183Z,19.34
2022-08-17T22:06:56.978Z,19.34
2022-08-17T22:09:35.921Z,19.33
2022-08-17T22:12:21.708Z,19.33
2022-08-17T22:14:54.192Z,19.32
2022-08-17T22:17:29.963Z,19.31
2022-08-17T22:20:09.726Z,19.29
2022-08-17T22:23:05.157Z,19.28
2022-08-17T22:25:36.861Z,19.26
2022-08-17T22:28:07.773Z,19.23
2022-08-17T22:30:39.340Z,19.21
2022-08-17T22:33:29.132Z,19.19
2022-08-17T22:36:22.745Z,19.18
2022-08-17T22:39:10.924Z,19.16
2022-08-17T22:41:52.116Z,19.13
2022-08-17T22:44:34.166Z,19.10
2022-08-17T22:47:06.772Z,19.08
2022-08-17T22:49:54.745Z,19.04
2022-08-17T22:52:30.109Z,19.02
2022-08-17T22:55:26.182Z,19.02
2022-08-17T22:58:12.968Z,19.02
2022-08-17T23:00:44.865Z,19.03
2022-08-17T23:03:19.158Z,19.03
2022-08-17T23:06:03.642Z,19.04
2022-08-17T23:08:35.135Z,19.06
2022-08-17T23:11:05.558Z,19.06
2022-08-17T23:13:33.596Z,19.03
2022-08-17T23:16:02.552Z,19.00
2022-08-17T23:18:30.518Z,18.98
2022-08-17T23:20:59.953Z,18.97
2022-08-17T23:23:27.882Z,18.96
2022-08-17T23:25:55.909Z,18.95
2022-08-17T23:28:23.891Z,18.95
2022-08-17T23:30:51.900Z,18.95
2022-08-17T23:33:31.045Z,18.91
2022-08-17T23:35:59.337Z,18.88
2022-08-17T23:38:29.031Z,18.88
2022-08-17T23:41:00.415Z,18.86
2022-08-17T23:43:30.540Z,18.85
2022-08-17T23:45:59.983Z,18.84
2022-08-17T23:48:36.665Z,18.80
2022-08-17T23:51:11.103Z,18.77
2022-08-17T23:53:44.219Z,18.75
2022-08-17T23:56:12.247Z,18.74
2022-08-17T23:58:42.513Z,18.74
